createdAt,value
2023-01-10T00:35:55.919Z,4.40
2023-01-10T00:38:24.051Z,4.40
2023-01-10T00:40:52.280Z,4.40
2023-01-10T00:43:37.909Z,4.50
2023-01-10T00:46:06.304Z,4.50
2023-01-10T00:48:36.093Z,4.40
2023-01-10T00:51:05.093Z,4.40
2023-01-10T00:53:33.211Z,4.40
2023-01-10T00:56:01.371Z,4.40
2023-01-10T00:58:29.541Z,4.50
2023-01-10T01:00:57.663Z,4.50
2023-01-10T01:03:25.802Z,4.60
2023-01-10T01:05:55.228Z,4.60
2023-01-10T02:13:47.445Z,3.80
2023-01-10T02:42:57.426Z,3.90
2023-01-10T04:01:56.740Z,4.00
2023-01-10T04:29:16.759Z,4.10
2023-01-10T05:31:25.500Z,4.00
2023-01-10T05:38:52.619Z,4.10
2023-01-10T05:43:50.060Z,4.10
2023-01-10T05:53:46.012Z,4.10
2023-01-10T05:58:44.261Z,4.10
2023-01-10T06:06:10.499Z,4.10
2023-01-10T06:13:38.066Z,3.90
2023-01-10T06:21:04.484Z,3.80
2023-01-10T06:28:31.967Z,3.80
2023-01-10T06:31:00.181Z,3.70
2023-01-10T06:33:28.302Z,3.60
2023-01-10T06:35:56.328Z,3.90
2023-01-10T06:38:24.305Z,3.80
2023-01-10T06:40:52.293Z,3.90
2023-01-10T06:43:21.653Z,3.80
2023-01-10T06:45:49.694Z,3.60
2023-01-10T06:48:17.907Z,3.70
2023-01-10T06:53:14.645Z,3.90
2023-01-10T06:55:42.765Z,3.80
2023-01-10T07:05:39.775Z,3.80
2023-01-10T07:10:36.669Z,3.70
2023-01-10T07:30:28.349Z,3.50
2023-01-10T07:32:57.386Z,3.70
2023-01-10T07:37:59.474Z,3.70
2023-01-10T07:40:27.881Z,3.70
2023-01-10T07:43:00.197Z,4.00
2023-01-10T07:45:29.464Z,4.00
2023-01-10T07:50:30.189Z,4.10
2023-01-10T07:53:00.081Z,4.10
2023-01-10T07:55:28.555Z,4.20
2023-01-10T07:57:56.905Z,4.20
2023-01-10T08:00:25.335Z,4.30
2023-01-10T08:02:55.264Z,4.40
2023-01-10T08:05:24.001Z,4.30
2023-01-10T08:07:53.768Z,4.30
2023-01-10T08:10:21.885Z,4.30
2023-01-10T08:12:51.293Z,4.50
2023-01-10T08:15:19.538Z,4.40
2023-01-10T08:17:48.220Z,4.50
2023-01-10T08:20:16.745Z,4.60
2023-01-10T08:22:44.853Z,4.80
2023-01-10T08:25:14.333Z,4.40
2023-01-10T08:27:42.532Z,4.60
2023-01-10T08:30:12.111Z,4.60
2023-01-10T08:32:40.505Z,4.50
2023-01-10T08:35:09.149Z,4.60
2023-01-10T08:37:37.284Z,4.60
2023-01-10T08:40:06.353Z,4.70
2023-01-10T08:42:35.868Z,4.90
2023-01-10T08:45:04.498Z,4.70
2023-01-10T08:47:32.586Z,4.60
2023-01-10T08:50:02.835Z,4.90
2023-01-10T08:52:31.863Z,4.80
2023-01-10T08:55:00.040Z,5.10
2023-01-10T08:57:28.204Z,5.00
2023-01-10T08:59:57.668Z,5.00
2023-01-10T09:02:25.801Z,5.00
2023-01-10T09:04:53.948Z,5.00
2023-01-10T09:07:22.137Z,5.10
2023-01-10T09:09:50.301Z,4.70
2023-01-10T09:12:37.133Z,5.00
2023-01-10T09:17:36.006Z,4.90
2023-01-10T09:20:06.307Z,4.80
2023-01-10T09:22:34.447Z,4.80
2023-01-10T09:25:02.573Z,4.80
2023-01-10T09:27:30.703Z,4.80
2023-01-10T09:29:58.854Z,4.90
2023-01-10T09:32:28.364Z,4.90
2023-01-10T09:34:56.563Z,4.90
2023-01-10T09:37:24.750Z,4.90
2023-01-10T09:39:53.294Z,4.90
2023-01-10T09:42:32.633Z,5.00
2023-01-10T09:45:11.799Z,5.10
2023-01-10T09:47:49.150Z,5.40
2023-01-10T09:50:22.852Z,5.30
2023-01-10T09:52:54.465Z,5.40
2023-01-10T09:55:27.895Z,5.60
2023-01-10T09:57:58.827Z,5.50
2023-01-10T10:00:39.332Z,5.40
2023-01-10T10:03:22.882Z,5.20
2023-01-10T10:05:54.146Z,5.30
2023-01-10T10:08:24.283Z,5.40
2023-01-10T10:11:12.784Z,5.40
2023-01-10T10:13:50.118Z,5.50
2023-01-10T10:16:29.914Z,5.60
2023-01-10T10:19:09.955Z,6.60
2023-01-10T10:21:48.132Z,5.80
2023-01-10T10:24:42.936Z,6.00
2023-01-10T10:27:19.841Z,6.20
2023-01-10T10:30:28.074Z,5.90
2023-01-10T10:33:13.230Z,5.90
2023-01-10T10:35:45.993Z,6.00
2023-01-10T10:38:18.749Z,5.90
2023-01-10T10:40:49.877Z,5.80
2023-01-10T10:43:21.944Z,5.90
2023-01-10T10:45:55.568Z,6.00
2023-01-10T10:48:28.461Z,6.10
2023-01-10T10:51:08.578Z,6.10
2023-01-10T10:53:37.406Z,6.20
2023-01-10T10:56:12.154Z,6.10
2023-01-10T10:58:43.133Z,6.20
2023-01-10T11:01:14.488Z,6.20
2023-01-10T11:03:48.261Z,6.20
2023-01-10T11:06:19.330Z,6.30
2023-01-10T11:08:50.256Z,6.20
2023-01-10T11:11:23.085Z,6.20
2023-01-10T11:13:55.288Z,6.20
2023-01-10T11:16:29.604Z,6.40
2023-01-10T11:19:19.659Z,6.40
2023-01-10T11:21:53.517Z,6.20
2023-01-10T11:24:28.542Z,6.20
2023-01-10T11:26:57.777Z,5.80
2023-01-10T11:29:28.600Z,5.80
2023-01-10T11:31:58.202Z,6.00
2023-01-10T11:34:29.796Z,5.90
2023-01-10T11:37:01.274Z,6.00
2023-01-10T11:39:31.628Z,6.00
2023-01-10T11:42:25.848Z,6.20
2023-01-10T11:47:22.498Z,6.10
2023-01-10T11:49:51.732Z,6.10
2023-01-10T11:52:26.339Z,6.20
2023-01-10T11:54:58.415Z,5.90
2023-01-10T11:57:31.027Z,5.90
2023-01-10T12:00:02.818Z,6.20
2023-01-10T12:02:34.042Z,6.20
2023-01-10T12:05:05.497Z,6.10
2023-01-10T12:07:55.264Z,6.00
2023-01-10T12:10:24.937Z,5.90
2023-01-10T12:12:58.101Z,6.00
2023-01-10T12:15:29.059Z,6.60
2023-01-10T12:17:59.342Z,6.00
2023-01-10T12:20:29.116Z,6.00
2023-01-10T12:23:01.442Z,6.00
2023-01-10T12:25:34.389Z,5.90
2023-01-10T12:28:02.943Z,6.20
2023-01-10T12:30:34.609Z,6.20
2023-01-10T12:33:05.574Z,6.30
2023-01-10T12:35:40.392Z,6.40
2023-01-10T12:40:53.750Z,6.30
2023-01-10T12:43:45.271Z,6.40
2023-01-10T12:46:38.123Z,6.30
2023-01-10T12:49:17.294Z,6.70
2023-01-10T12:51:47.117Z,6.30
2023-01-10T12:54:21.945Z,6.20
2023-01-10T12:56:51.666Z,6.20
2023-01-10T12:59:36.729Z,6.20
2023-01-10T13:02:08.971Z,6.10
2023-01-10T13:04:39.814Z,6.20
2023-01-10T13:07:11.307Z,6.30
2023-01-10T13:09:43.968Z,6.50
2023-01-10T13:12:17.303Z,6.20
2023-01-10T13:14:51.472Z,6.30
2023-01-10T13:22:44.664Z,6.30
2023-01-10T13:25:23.532Z,6.50
2023-01-10T13:27:58.865Z,6.60
2023-01-10T13:30:33.997Z,7.00
2023-01-10T13:33:06.357Z,6.70
2023-01-10T13:35:42.618Z,6.40
2023-01-10T13:38:20.123Z,6.40
2023-01-10T13:41:01.157Z,6.50
2023-01-10T13:43:40.068Z,6.50
2023-01-10T13:49:49.019Z,6.80
2023-01-10T13:52:41.281Z,6.90
2023-01-10T13:55:34.428Z,6.60
2023-01-10T13:58:06.278Z,6.60
2023-01-10T14:01:05.240Z,6.60
2023-01-10T14:03:50.616Z,6.90
2023-01-10T14:06:41.131Z,6.70
2023-01-10T14:09:33.583Z,6.70
2023-01-10T14:12:16.851Z,6.80
2023-01-10T14:14:53.672Z,6.80
2023-01-10T14:17:26.290Z,7.00
2023-01-10T14:20:19.326Z,6.80
2023-01-10T14:23:04.157Z,6.90
2023-01-10T14:25:35.101Z,6.90
2023-01-10T14:28:04.602Z,6.80
2023-01-10T14:30:36.436Z,6.80
2023-01-10T14:33:13.784Z,6.70
2023-01-10T14:35:46.108Z,6.80
2023-01-10T14:38:20.992Z,6.70
2023-01-10T14:40:51.844Z,6.60
2023-01-10T14:43:25.072Z,6.60
2023-01-10T14:46:01.188Z,6.50
2023-01-10T14:48:32.009Z,6.30
2023-01-10T14:51:21.239Z,6.40
2023-01-10T14:53:55.908Z,6.40
2023-01-10T14:56:26.830Z,6.40
2023-01-10T14:58:55.056Z,6.30
2023-01-10T15:01:31.062Z,6.20
2023-01-10T15:04:02.802Z,6.20
2023-01-10T15:06:30.963Z,6.20
2023-01-10T15:09:01.098Z,6.10
2023-01-10T15:14:03.591Z,6.10
2023-01-10T15:16:34.771Z,6.70
2023-01-10T15:19:03.073Z,6.00
2023-01-10T15:23:59.610Z,6.00
2023-01-10T15:26:30.698Z,6.00
2023-01-10T15:29:13.332Z,5.90
2023-01-10T15:31:44.565Z,6.20
2023-01-10T15:34:18.183Z,6.00
2023-01-10T15:36:50.380Z,5.90
2023-01-10T15:39:23.188Z,5.90
2023-01-10T15:41:56.340Z,5.70
2023-01-10T15:44:36.609Z,5.70
2023-01-10T15:47:06.921Z,6.10
2023-01-10T15:49:35.132Z,5.70
2023-01-10T15:52:03.252Z,5.80
2023-01-10T15:54:34.419Z,5.70
2023-01-10T15:57:07.862Z,5.70
2023-01-10T15:59:39.467Z,5.50
2023-01-10T16:02:24.681Z,5.40
